sensor_id;sensor_type;location;lat;lon;timestamp;temperature;humidity
38582;DHT22;24349;53.720;10.014;2023-07-20T00:01:13;14.90;99.90
38582;DHT22;24349;53.720;10.014;2023-07-20T00:03:39;14.90;99.90
38582;DHT22;24349;53.720;10.014;2023-07-20T00:06:04;14.80;99.90
38582;DHT22;24349;53.720;10.014;2023-07-20T00:08:30;14.80;99.90
38582;DHT22;24349;53.720;10.014;2023-07-20T00:10:56;14.90;99.90
38582;DHT22;24349;53.720;10.014;2023-07-20T00:13:22;15.00;99.90
38582;DHT22;24349;53.720;10.014;2023-07-20T00:15:47;15.10;99.90
38582;DHT22;24349;53.720;10.014;2023-07-20T00:18:13;15.10;99.90
38582;DHT22;24349;53.720;10.014;2023-07-20T00:20:39;15.20;99.90
38582;DHT22;24349;53.720;10.014;2023-07-20T00:23:05;15.20;99.90
38582;DHT22;24349;53.720;10.014;2023-07-20T00:25:31;15.30;99.90
38582;DHT22;24349;53.720;10.014;2023-07-20T00:27:57;15.30;99.90
38582;DHT22;24349;53.720;10.014;2023-07-20T00:30:22;15.30;99.90
38582;DHT22;24349;53.720;10.014;2023-07-20T00:32:48;15.20;99.90
38582;DHT22;24349;53.720;10.014;2023-07-20T00:35:13;15.30;99.90
38582;DHT22;24349;53.720;10.014;2023-07-20T00:37:40;15.30;99.90
38582;DHT22;24349;53.720;10.014;2023-07-20T00:40:06;15.30;99.90
38582;DHT22;24349;53.720;10.014;2023-07-20T00:42:34;15.30;99.90
38582;DHT22;24349;53.720;10.014;2023-07-20T00:45:00;15.20;99.90
38582;DHT22;24349;53.720;10.014;2023-07-20T00:47:27;15.20;99.90
38582;DHT22;24349;53.720;10.014;2023-07-20T00:49:53;15.20;99.90
38582;DHT22;24349;53.720;10.014;2023-07-20T00:52:20;15.10;99.90
38582;DHT22;24349;53.720;10.014;2023-07-20T00:54:47;15.00;99.90
38582;DHT22;24349;53.720;10.014;2023-07-20T00:57:14;14.90;99.90
38582;DHT22;24349;53.720;10.014;2023-07-20T00:59:41;14.80;99.90
38582;DHT22;24349;53.720;10.014;2023-07-20T01:02:07;14.70;99.90
38582;DHT22;24349;53.720;10.014;2023-07-20T01:04:33;14.60;99.90
38582;DHT22;24349;53.720;10.014;2023-07-20T01:07:12;14.60;99.90
38582;DHT22;24349;53.720;10.014;2023-07-20T01:10:10;14.50;99.90
38582;DHT22;24349;53.720;10.014;2023-07-20T01:12:40;14.40;99.90
38582;DHT22;24349;53.720;10.014;2023-07-20T01:15:07;14.50;99.90
38582;DHT22;24349;53.720;10.014;2023-07-20T01:17:34;14.40;99.90
38582;DHT22;24349;53.720;10.014;2023-07-20T01:20:00;14.60;99.90
38582;DHT22;24349;53.720;10.014;2023-07-20T01:25:12;14.80;99.90
38582;DHT22;24349;53.720;10.014;2023-07-20T01:33:09;15.00;99.90
38582;DHT22;24349;53.720;10.014;2023-07-20T01:35:37;14.90;99.90
38582;DHT22;24349;53.720;10.014;2023-07-20T01:38:04;15.00;99.90
38582;DHT22;24349;53.720;10.014;2023-07-20T01:40:30;14.90;99.90
38582;DHT22;24349;53.720;10.014;2023-07-20T01:42:56;14.90;99.90
38582;DHT22;24349;53.720;10.014;2023-07-20T01:45:22;14.90;99.90
38582;DHT22;24349;53.720;10.014;2023-07-20T01:47:47;14.90;99.90
38582;DHT22;24349;53.720;10.014;2023-07-20T01:50:13;15.00;99.90
38582;DHT22;24349;53.720;10.014;2023-07-20T01:52:38;15.00;99.90
38582;DHT22;24349;53.720;10.014;2023-07-20T01:55:04;15.00;99.90
38582;DHT22;24349;53.720;10.014;2023-07-20T01:57:30;15.10;99.90
38582;DHT22;24349;53.720;10.014;2023-07-20T01:59:56;15.10;99.90
38582;DHT22;24349;53.720;10.014;2023-07-20T02:02:26;15.10;99.90
38582;DHT22;24349;53.720;10.014;2023-07-20T02:04:51;14.90;99.90
38582;DHT22;24349;53.720;10.014;2023-07-20T02:07:17;14.90;99.90
38582;DHT22;24349;53.720;10.014;2023-07-20T02:09:43;14.80;99.90
38582;DHT22;24349;53.720;10.014;2023-07-20T02:12:09;14.70;99.90
38582;DHT22;24349;53.720;10.014;2023-07-20T02:14:34;14.60;99.90
38582;DHT22;24349;53.720;10.014;2023-07-20T02:17:00;14.50;99.90
38582;DHT22;24349;53.720;10.014;2023-07-20T02:19:27;14.40;99.90
38582;DHT22;24349;53.720;10.014;2023-07-20T02:21:52;14.50;99.90
38582;DHT22;24349;53.720;10.014;2023-07-20T02:24:18;14.60;99.90
38582;DHT22;24349;53.720;10.014;2023-07-20T02:26:44;14.70;99.90
38582;DHT22;24349;53.720;10.014;2023-07-20T02:29:10;14.70;99.90
38582;DHT22;24349;53.720;10.014;2023-07-20T02:31:37;14.70;99.90
38582;DHT22;24349;53.720;10.014;2023-07-20T02:34:05;14.70;99.90
38582;DHT22;24349;53.720;10.014;2023-07-20T02:36:30;14.70;99.90
38582;DHT22;24349;53.720;10.014;2023-07-20T02:38:58;14.50;99.90
38582;DHT22;24349;53.720;10.014;2023-07-20T02:41:24;14.40;99.90
38582;DHT22;24349;53.720;10.014;2023-07-20T02:43:50;14.40;99.90
38582;DHT22;24349;53.720;10.014;2023-07-20T02:46:15;14.40;99.90
38582;DHT22;24349;53.720;10.014;2023-07-20T02:48:41;14.40;99.90
38582;DHT22;24349;53.720;10.014;2023-07-20T02:51:06;14.30;99.90
38582;DHT22;24349;53.720;10.014;2023-07-20T02:53:33;14.30;99.90
38582;DHT22;24349;53.720;10.014;2023-07-20T02:55:58;14.30;99.90
38582;DHT22;24349;53.720;10.014;2023-07-20T02:58:24;14.20;99.90
38582;DHT22;24349;53.720;10.014;2023-07-20T03:00:50;14.20;99.90
38582;DHT22;24349;53.720;10.014;2023-07-20T03:03:15;14.20;99.90
38582;DHT22;24349;53.720;10.014;2023-07-20T03:05:42;14.30;99.90
38582;DHT22;24349;53.720;10.014;2023-07-20T03:08:08;14.30;99.90
38582;DHT22;24349;53.720;10.014;2023-07-20T03:10:39;14.30;99.90
38582;DHT22;24349;53.720;10.014;2023-07-20T03:13:06;14.30;99.90
38582;DHT22;24349;53.720;10.014;2023-07-20T03:15:32;14.30;99.90
38582;DHT22;24349;53.720;10.014;2023-07-20T03:17:58;14.40;99.90
38582;DHT22;24349;53.720;10.014;2023-07-20T03:20:24;14.40;99.90
38582;DHT22;24349;53.720;10.014;2023-07-20T03:22:49;14.30;99.90
38582;DHT22;24349;53.720;10.014;2023-07-20T03:25:15;14.40;99.90
38582;DHT22;24349;53.720;10.014;2023-07-20T03:27:41;14.40;99.90
38582;DHT22;24349;53.720;10.014;2023-07-20T03:30:07;14.30;99.90
38582;DHT22;24349;53.720;10.014;2023-07-20T03:32:35;14.30;99.90
38582;DHT22;24349;53.720;10.014;2023-07-20T03:35:01;14.10;99.90
38582;DHT22;24349;53.720;10.014;2023-07-20T03:37:26;14.20;99.90
38582;DHT22;24349;53.720;10.014;2023-07-20T03:39:52;14.30;99.90
38582;DHT22;24349;53.720;10.014;2023-07-20T03:42:17;14.20;99.90
38582;DHT22;24349;53.720;10.014;2023-07-20T03:44:43;14.30;99.90
38582;DHT22;24349;53.720;10.014;2023-07-20T03:47:09;14.40;99.90
38582;DHT22;24349;53.720;10.014;2023-07-20T03:49:34;14.40;99.90
38582;DHT22;24349;53.720;10.014;2023-07-20T03:52:01;14.30;99.90
38582;DHT22;24349;53.720;10.014;2023-07-20T03:54:29;14.30;99.90
38582;DHT22;24349;53.720;10.014;2023-07-20T03:56:54;14.30;99.90
38582;DHT22;24349;53.720;10.014;2023-07-20T03:59:20;14.30;99.90
38582;DHT22;24349;53.720;10.014;2023-07-20T04:01:46;14.20;99.90
38582;DHT22;24349;53.720;10.014;2023-07-20T04:04:11;14.20;99.90
38582;DHT22;24349;53.720;10.014;2023-07-20T04:06:37;14.20;99.90
38582;DHT22;24349;53.720;10.014;2023-07-20T04:09:04;14.10;99.90
38582;DHT22;24349;53.720;10.014;2023-07-20T04:11:32;14.20;99.90
38582;DHT22;24349;53.720;10.014;2023-07-20T04:13:58;14.20;99.90
38582;DHT22;24349;53.720;10.014;2023-07-20T04:16:23;14.20;99.90
38582;DHT22;24349;53.720;10.014;2023-07-20T04:18:49;14.20;99.90
38582;DHT22;24349;53.720;10.014;2023-07-20T04:21:15;14.20;99.90
38582;DHT22;24349;53.720;10.014;2023-07-20T04:23:40;14.20;99.90
38582;DHT22;24349;53.720;10.014;2023-07-20T04:26:06;14.30;99.90
38582;DHT22;24349;53.720;10.014;2023-07-20T04:28:32;14.30;99.90
38582;DHT22;24349;53.720;10.014;2023-07-20T04:31:10;14.30;99.90
38582;DHT22;24349;53.720;10.014;2023-07-20T04:33:36;14.30;99.90
38582;DHT22;24349;53.720;10.014;2023-07-20T04:36:02;14.30;99.90
38582;DHT22;24349;53.720;10.014;2023-07-20T04:38:28;14.40;99.90
38582;DHT22;24349;53.720;10.014;2023-07-20T04:40:54;14.50;99.90
38582;DHT22;24349;53.720;10.014;2023-07-20T04:43:19;14.50;99.90
38582;DHT22;24349;53.720;10.014;2023-07-20T04:45:45;14.30;99.90
38582;DHT22;24349;53.720;10.014;2023-07-20T04:48:12;14.20;99.90
38582;DHT22;24349;53.720;10.014;2023-07-20T04:50:41;14.50;99.90
38582;DHT22;24349;53.720;10.014;2023-07-20T04:53:07;14.50;99.90
38582;DHT22;24349;53.720;10.014;2023-07-20T04:55:32;14.50;99.90
38582;DHT22;24349;53.720;10.014;2023-07-20T04:58:02;14.40;99.90
38582;DHT22;24349;53.720;10.014;2023-07-20T05:00:29;14.50;99.90
38582;DHT22;24349;53.720;10.014;2023-07-20T05:02:55;14.50;99.90
38582;DHT22;24349;53.720;10.014;2023-07-20T05:05:21;14.60;99.90
38582;DHT22;24349;53.720;10.014;2023-07-20T05:07:46;14.70;99.90
38582;DHT22;24349;53.720;10.014;2023-07-20T05:10:12;14.60;99.90
38582;DHT22;24349;53.720;10.014;2023-07-20T05:12:38;14.80;99.90
38582;DHT22;24349;53.720;10.014;2023-07-20T05:15:04;15.00;99.90
38582;DHT22;24349;53.720;10.014;2023-07-20T05:17:29;15.10;99.90
38582;DHT22;24349;53.720;10.014;2023-07-20T05:19:55;15.20;99.90
38582;DHT22;24349;53.720;10.014;2023-07-20T05:22:21;15.40;99.90
38582;DHT22;24349;53.720;10.014;2023-07-20T05:24:46;15.30;99.90
38582;DHT22;24349;53.720;10.014;2023-07-20T05:27:12;15.20;99.90
38582;DHT22;24349;53.720;10.014;2023-07-20T05:29:37;15.00;99.90
38582;DHT22;24349;53.720;10.014;2023-07-20T05:32:03;15.10;99.90
38582;DHT22;24349;53.720;10.014;2023-07-20T05:34:29;15.40;99.90
38582;DHT22;24349;53.720;10.014;2023-07-20T05:36:55;15.30;99.90
38582;DHT22;24349;53.720;10.014;2023-07-20T05:39:21;15.10;99.90
38582;DHT22;24349;53.720;10.014;2023-07-20T05:41:46;15.20;99.90
38582;DHT22;24349;53.720;10.014;2023-07-20T05:44:12;15.40;99.90
38582;DHT22;24349;53.720;10.014;2023-07-20T05:46:38;15.60;99.90
38582;DHT22;24349;53.720;10.014;2023-07-20T05:49:03;15.80;99.90
38582;DHT22;24349;53.720;10.014;2023-07-20T05:51:29;16.10;99.90
38582;DHT22;24349;53.720;10.014;2023-07-20T05:53:55;15.90;99.90
38582;DHT22;24349;53.720;10.014;2023-07-20T05:56:20;15.80;99.90
38582;DHT22;24349;53.720;10.014;2023-07-20T05:58:46;16.00;99.90
38582;DHT22;24349;53.720;10.014;2023-07-20T06:01:11;16.30;99.90
38582;DHT22;24349;53.720;10.014;2023-07-20T06:03:37;16.50;99.90
38582;DHT22;24349;53.720;10.014;2023-07-20T06:06:03;16.60;99.90
38582;DHT22;24349;53.720;10.014;2023-07-20T06:08:32;16.90;99.90
38582;DHT22;24349;53.720;10.014;2023-07-20T06:10:57;17.30;99.90
38582;DHT22;24349;53.720;10.014;2023-07-20T06:13:23;17.30;99.90
38582;DHT22;24349;53.720;10.014;2023-07-20T06:15:49;17.40;99.90
38582;DHT22;24349;53.720;10.014;2023-07-20T06:18:15;17.50;99.90
38582;DHT22;24349;53.720;10.014;2023-07-20T06:20:40;17.80;99.90
38582;DHT22;24349;53.720;10.014;2023-07-20T06:23:06;18.20;99.90
38582;DHT22;24349;53.720;10.014;2023-07-20T06:25:32;18.10;99.90
38582;DHT22;24349;53.720;10.014;2023-07-20T06:27:57;18.10;99.90
38582;DHT22;24349;53.720;10.014;2023-07-20T06:30:24;18.10;99.90
38582;DHT22;24349;53.720;10.014;2023-07-20T06:32:49;18.00;99.90
38582;DHT22;24349;53.720;10.014;2023-07-20T06:35:15;18.20;99.90
38582;DHT22;24349;53.720;10.014;2023-07-20T06:37:41;17.50;99.90
38582;DHT22;24349;53.720;10.014;2023-07-20T06:40:08;18.00;99.90
38582;DHT22;24349;53.720;10.014;2023-07-20T06:42:36;18.10;99.90
38582;DHT22;24349;53.720;10.014;2023-07-20T06:45:02;18.10;99.90
38582;DHT22;24349;53.720;10.014;2023-07-20T06:47:28;18.60;99.90
38582;DHT22;24349;53.720;10.014;2023-07-20T06:49:54;18.20;99.90
38582;DHT22;24349;53.720;10.014;2023-07-20T06:52:19;18.60;99.90
38582;DHT22;24349;53.720;10.014;2023-07-20T06:54:45;19.10;99.90
38582;DHT22;24349;53.720;10.014;2023-07-20T06:57:10;19.00;99.90
38582;DHT22;24349;53.720;10.014;2023-07-20T06:59:36;19.00;99.90
38582;DHT22;24349;53.720;10.014;2023-07-20T07:02:02;19.30;99.90
38582;DHT22;24349;53.720;10.014;2023-07-20T07:04:27;19.60;99.90
38582;DHT22;24349;53.720;10.014;2023-07-20T07:06:53;19.40;99.90
38582;DHT22;24349;53.720;10.014;2023-07-20T07:09:19;19.10;99.90
38582;DHT22;24349;53.720;10.014;2023-07-20T07:11:46;19.40;99.90
38582;DHT22;24349;53.720;10.014;2023-07-20T07:14:12;19.50;99.90
38582;DHT22;24349;53.720;10.014;2023-07-20T07:16:38;19.50;99.90
38582;DHT22;24349;53.720;10.014;2023-07-20T07:19:03;19.60;99.90
38582;DHT22;24349;53.720;10.014;2023-07-20T07:21:31;19.40;99.90
38582;DHT22;24349;53.720;10.014;2023-07-20T07:23:57;19.30;99.90
38582;DHT22;24349;53.720;10.014;2023-07-20T07:26:23;19.30;99.90
38582;DHT22;24349;53.720;10.014;2023-07-20T07:28:49;19.20;99.90
38582;DHT22;24349;53.720;10.014;2023-07-20T07:31:15;19.00;99.90
38582;DHT22;24349;53.720;10.014;2023-07-20T07:33:40;18.90;99.90
38582;DHT22;24349;53.720;10.014;2023-07-20T07:36:06;18.50;99.90
38582;DHT22;24349;53.720;10.014;2023-07-20T07:38:32;18.40;99.90
38582;DHT22;24349;53.720;10.014;2023-07-20T07:40:58;18.10;99.90
38582;DHT22;24349;53.720;10.014;2023-07-20T07:43:24;17.40;99.90
38582;DHT22;24349;53.720;10.014;2023-07-20T07:45:49;17.00;99.90
38582;DHT22;24349;53.720;10.014;2023-07-20T07:48:15;17.20;99.90
38582;DHT22;24349;53.720;10.014;2023-07-20T07:50:43;17.40;99.90
38582;DHT22;24349;53.720;10.014;2023-07-20T07:53:09;17.60;99.90
38582;DHT22;24349;53.720;10.014;2023-07-20T07:55:35;18.30;99.90
38582;DHT22;24349;53.720;10.014;2023-07-20T07:58:01;19.20;99.90
38582;DHT22;24349;53.720;10.014;2023-07-20T08:00:26;19.80;99.90
38582;DHT22;24349;53.720;10.014;2023-07-20T08:02:52;18.90;99.90
38582;DHT22;24349;53.720;10.014;2023-07-20T08:05:18;19.40;99.90
38582;DHT22;24349;53.720;10.014;2023-07-20T08:07:43;19.10;99.90
38582;DHT22;24349;53.720;10.014;2023-07-20T08:10:09;18.90;99.90
38582;DHT22;24349;53.720;10.014;2023-07-20T08:12:35;19.10;99.90
38582;DHT22;24349;53.720;10.014;2023-07-20T08:15:00;19.60;99.90
38582;DHT22;24349;53.720;10.014;2023-07-20T08:17:26;19.20;99.90
38582;DHT22;24349;53.720;10.014;2023-07-20T08:19:52;19.30;99.90
38582;DHT22;24349;53.720;10.014;2023-07-20T08:22:17;19.40;99.90
38582;DHT22;24349;53.720;10.014;2023-07-20T08:24:43;19.60;99.90
38582;DHT22;24349;53.720;10.014;2023-07-20T08:27:09;19.90;99.90
38582;DHT22;24349;53.720;10.014;2023-07-20T08:29:35;20.40;99.90
38582;DHT22;24349;53.720;10.014;2023-07-20T08:32:02;20.00;99.90
38582;DHT22;24349;53.720;10.014;2023-07-20T08:34:28;20.20;99.90
38582;DHT22;24349;53.720;10.014;2023-07-20T08:36:53;20.60;99.90
38582;DHT22;24349;53.720;10.014;2023-07-20T08:39:19;20.40;99.90
38582;DHT22;24349;53.720;10.014;2023-07-20T08:41:48;20.50;99.90
38582;DHT22;24349;53.720;10.014;2023-07-20T08:44:14;20.50;99.90
38582;DHT22;24349;53.720;10.014;2023-07-20T08:46:40;20.50;99.90
38582;DHT22;24349;53.720;10.014;2023-07-20T08:49:06;20.30;99.90
38582;DHT22;24349;53.720;10.014;2023-07-20T08:51:33;20.00;99.90
38582;DHT22;24349;53.720;10.014;2023-07-20T08:54:01;20.00;99.90
38582;DHT22;24349;53.720;10.014;2023-07-20T08:56:26;20.10;99.90
38582;DHT22;24349;53.720;10.014;2023-07-20T08:58:56;20.60;99.90
38582;DHT22;24349;53.720;10.014;2023-07-20T09:01:22;20.70;99.90
38582;DHT22;24349;53.720;10.014;2023-07-20T09:03:49;21.00;99.90
38582;DHT22;24349;53.720;10.014;2023-07-20T09:06:15;20.90;99.90
38582;DHT22;24349;53.720;10.014;2023-07-20T09:08:42;21.10;99.90
38582;DHT22;24349;53.720;10.014;2023-07-20T09:11:11;21.10;99.90
38582;DHT22;24349;53.720;10.014;2023-07-20T09:13:37;20.20;99.90
38582;DHT22;24349;53.720;10.014;2023-07-20T09:16:03;19.60;99.90
38582;DHT22;24349;53.720;10.014;2023-07-20T09:18:32;19.00;99.90
38582;DHT22;24349;53.720;10.014;2023-07-20T09:21:06;19.10;99.90
38582;DHT22;24349;53.720;10.014;2023-07-20T09:23:34;19.40;99.90
38582;DHT22;24349;53.720;10.014;2023-07-20T09:26:00;19.80;99.90
38582;DHT22;24349;53.720;10.014;2023-07-20T09:28:26;19.80;99.90
38582;DHT22;24349;53.720;10.014;2023-07-20T09:30:54;20.10;99.90
38582;DHT22;24349;53.720;10.014;2023-07-20T09:33:22;20.70;99.90
38582;DHT22;24349;53.720;10.014;2023-07-20T09:35:48;20.80;99.90
38582;DHT22;24349;53.720;10.014;2023-07-20T09:38:14;20.50;99.90
38582;DHT22;24349;53.720;10.014;2023-07-20T09:40:41;20.50;99.90
38582;DHT22;24349;53.720;10.014;2023-07-20T09:43:10;21.00;99.90
38582;DHT22;24349;53.720;10.014;2023-07-20T09:45:41;21.10;99.90
38582;DHT22;24349;53.720;10.014;2023-07-20T09:48:07;21.30;99.90
38582;DHT22;24349;53.720;10.014;2023-07-20T09:50:48;21.30;99.90
38582;DHT22;24349;53.720;10.014;2023-07-20T09:53:15;20.90;99.90
38582;DHT22;24349;53.720;10.014;2023-07-20T09:55:44;21.30;99.90
38582;DHT22;24349;53.720;10.014;2023-07-20T09:58:10;21.80;99.90
38582;DHT22;24349;53.720;10.014;2023-07-20T10:00:37;21.80;99.90
38582;DHT22;24349;53.720;10.014;2023-07-20T10:03:04;22.10;99.90
38582;DHT22;24349;53.720;10.014;2023-07-20T10:05:35;22.20;99.90
38582;DHT22;24349;53.720;10.014;2023-07-20T10:08:02;20.50;99.90
38582;DHT22;24349;53.720;10.014;2023-07-20T10:10:30;20.20;99.90
38582;DHT22;24349;53.720;10.014;2023-07-20T10:12:57;19.10;99.90
38582;DHT22;24349;53.720;10.014;2023-07-20T10:15:33;18.80;99.90
38582;DHT22;24349;53.720;10.014;2023-07-20T10:20:46;18.40;99.90
38582;DHT22;24349;53.720;10.014;2023-07-20T10:23:12;18.30;99.90
38582;DHT22;24349;53.720;10.014;2023-07-20T10:25:38;18.70;99.90
38582;DHT22;24349;53.720;10.014;2023-07-20T10:28:07;19.30;99.90
38582;DHT22;24349;53.720;10.014;2023-07-20T10:30:36;19.40;99.90
38582;DHT22;24349;53.720;10.014;2023-07-20T10:33:11;19.70;99.90
38582;DHT22;24349;53.720;10.014;2023-07-20T10:36:03;20.50;99.90
38582;DHT22;24349;53.720;10.014;2023-07-20T10:41:27;20.60;99.90
38582;DHT22;24349;53.720;10.014;2023-07-20T10:43:58;20.30;99.90
38582;DHT22;24349;53.720;10.014;2023-07-20T10:49:05;20.80;99.90
38582;DHT22;24349;53.720;10.014;2023-07-20T10:51:48;21.60;99.90
38582;DHT22;24349;53.720;10.014;2023-07-20T10:56:43;22.60;99.90
38582;DHT22;24349;53.720;10.014;2023-07-20T11:01:58;21.60;99.90
38582;DHT22;24349;53.720;10.014;2023-07-20T11:04:47;21.50;99.90
38582;DHT22;24349;53.720;10.014;2023-07-20T11:07:35;22.10;99.90
38582;DHT22;24349;53.720;10.014;2023-07-20T11:10:13;22.30;99.90
38582;DHT22;24349;53.720;10.014;2023-07-20T11:12:40;22.80;99.90
38582;DHT22;24349;53.720;10.014;2023-07-20T11:15:06;22.50;99.90
38582;DHT22;24349;53.720;10.014;2023-07-20T11:17:33;21.90;99.90
38582;DHT22;24349;53.720;10.014;2023-07-20T11:19:59;21.50;99.90
38582;DHT22;24349;53.720;10.014;2023-07-20T11:22:31;22.20;99.90
38582;DHT22;24349;53.720;10.014;2023-07-20T11:24:57;22.40;99.90
38582;DHT22;24349;53.720;10.014;2023-07-20T11:27:23;21.90;99.90
38582;DHT22;24349;53.720;10.014;2023-07-20T11:29:49;20.70;99.90
38582;DHT22;24349;53.720;10.014;2023-07-20T11:32:23;20.20;99.90
38582;DHT22;24349;53.720;10.014;2023-07-20T11:34:49;19.60;99.90
38582;DHT22;24349;53.720;10.014;2023-07-20T11:37:15;19.40;99.90
38582;DHT22;24349;53.720;10.014;2023-07-20T11:39:41;18.80;99.90
38582;DHT22;24349;53.720;10.014;2023-07-20T11:42:07;18.40;99.90
38582;DHT22;24349;53.720;10.014;2023-07-20T11:44:33;18.30;99.90
38582;DHT22;24349;53.720;10.014;2023-07-20T11:49:27;18.20;99.90
38582;DHT22;24349;53.720;10.014;2023-07-20T11:51:52;18.10;99.90
38582;DHT22;24349;53.720;10.014;2023-07-20T11:54:18;17.90;99.90
38582;DHT22;24349;53.720;10.014;2023-07-20T11:56:44;17.80;99.90
38582;DHT22;24349;53.720;10.014;2023-07-20T11:59:10;17.90;99.90
38582;DHT22;24349;53.720;10.014;2023-07-20T12:01:35;18.20;99.90
38582;DHT22;24349;53.720;10.014;2023-07-20T12:04:03;18.10;99.90
38582;DHT22;24349;53.720;10.014;2023-07-20T12:06:29;18.20;99.90
38582;DHT22;24349;53.720;10.014;2023-07-20T12:08:57;18.30;99.90
38582;DHT22;24349;53.720;10.014;2023-07-20T12:11:36;18.20;99.90
38582;DHT22;24349;53.720;10.014;2023-07-20T12:14:04;18.40;99.90
38582;DHT22;24349;53.720;10.014;2023-07-20T12:16:30;19.00;99.90
38582;DHT22;24349;53.720;10.014;2023-07-20T12:19:04;19.70;99.90
38582;DHT22;24349;53.720;10.014;2023-07-20T12:21:30;20.70;99.90
38582;DHT22;24349;53.720;10.014;2023-07-20T12:23:58;21.20;99.90
38582;DHT22;24349;53.720;10.014;2023-07-20T12:26:28;21.60;99.90
38582;DHT22;24349;53.720;10.014;2023-07-20T12:28:54;22.00;99.90
38582;DHT22;24349;53.720;10.014;2023-07-20T12:31:21;22.10;99.90
38582;DHT22;24349;53.720;10.014;2023-07-20T12:33:48;22.20;99.90
38582;DHT22;24349;53.720;10.014;2023-07-20T12:36:14;22.10;99.90
38582;DHT22;24349;53.720;10.014;2023-07-20T12:38:40;21.80;99.90
38582;DHT22;24349;53.720;10.014;2023-07-20T12:41:07;21.00;99.90
38582;DHT22;24349;53.720;10.014;2023-07-20T12:43:33;20.70;99.90
38582;DHT22;24349;53.720;10.014;2023-07-20T12:45:59;20.30;99.90
38582;DHT22;24349;53.720;10.014;2023-07-20T12:48:25;20.20;99.90
38582;DHT22;24349;53.720;10.014;2023-07-20T12:50:51;20.60;99.90
38582;DHT22;24349;53.720;10.014;2023-07-20T12:53:17;20.90;99.90
38582;DHT22;24349;53.720;10.014;2023-07-20T12:55:42;21.40;99.90
38582;DHT22;24349;53.720;10.014;2023-07-20T12:58:10;21.80;99.90
38582;DHT22;24349;53.720;10.014;2023-07-20T13:00:35;21.90;99.90
38582;DHT22;24349;53.720;10.014;2023-07-20T13:03:01;22.00;99.90
38582;DHT22;24349;53.720;10.014;2023-07-20T13:05:31;21.90;99.90
38582;DHT22;24349;53.720;10.014;2023-07-20T13:07:57;22.00;99.90
38582;DHT22;24349;53.720;10.014;2023-07-20T13:10:23;21.90;99.90
38582;DHT22;24349;53.720;10.014;2023-07-20T13:12:49;21.60;99.90
38582;DHT22;24349;53.720;10.014;2023-07-20T13:15:16;21.00;99.90
38582;DHT22;24349;53.720;10.014;2023-07-20T13:17:41;20.70;99.90
38582;DHT22;24349;53.720;10.014;2023-07-20T13:20:09;20.30;99.90
38582;DHT22;24349;53.720;10.014;2023-07-20T13:22:36;20.00;99.90
38582;DHT22;24349;53.720;10.014;2023-07-20T13:25:02;20.60;99.90
38582;DHT22;24349;53.720;10.014;2023-07-20T13:27:28;21.60;99.90
38582;DHT22;24349;53.720;10.014;2023-07-20T13:29:56;22.30;99.90
38582;DHT22;24349;53.720;10.014;2023-07-20T13:32:22;22.70;99.90
38582;DHT22;24349;53.720;10.014;2023-07-20T13:34:47;23.40;99.90
38582;DHT22;24349;53.720;10.014;2023-07-20T13:37:14;22.30;99.90
38582;DHT22;24349;53.720;10.014;2023-07-20T13:39:40;22.00;99.90
38582;DHT22;24349;53.720;10.014;2023-07-20T13:42:06;22.40;99.90
38582;DHT22;24349;53.720;10.014;2023-07-20T13:44:32;21.80;99.90
38582;DHT22;24349;53.720;10.014;2023-07-20T13:46:58;21.10;99.90
38582;DHT22;24349;53.720;10.014;2023-07-20T13:49:24;20.90;99.90
38582;DHT22;24349;53.720;10.014;2023-07-20T13:51:49;20.60;99.90
38582;DHT22;24349;53.720;10.014;2023-07-20T13:54:15;21.20;99.90
38582;DHT22;24349;53.720;10.014;2023-07-20T13:56:41;21.70;99.90
38582;DHT22;24349;53.720;10.014;2023-07-20T13:59:06;21.70;99.90
38582;DHT22;24349;53.720;10.014;2023-07-20T14:01:32;22.20;99.90
38582;DHT22;24349;53.720;10.014;2023-07-20T14:04:01;23.00;99.90
38582;DHT22;24349;53.720;10.014;2023-07-20T14:06:31;23.20;99.90
38582;DHT22;24349;53.720;10.014;2023-07-20T14:08:57;23.30;99.90
38582;DHT22;24349;53.720;10.014;2023-07-20T14:11:23;23.50;99.90
38582;DHT22;24349;53.720;10.014;2023-07-20T14:13:53;23.70;99.90
38582;DHT22;24349;53.720;10.014;2023-07-20T14:16:22;24.20;99.90
38582;DHT22;24349;53.720;10.014;2023-07-20T14:18:48;24.10;99.90
38582;DHT22;24349;53.720;10.014;2023-07-20T14:21:19;24.50;99.90
38582;DHT22;24349;53.720;10.014;2023-07-20T14:23:46;24.00;99.90
38582;DHT22;24349;53.720;10.014;2023-07-20T14:26:13;23.20;99.90
38582;DHT22;24349;53.720;10.014;2023-07-20T14:28:38;22.40;99.90
38582;DHT22;24349;53.720;10.014;2023-07-20T14:31:04;22.00;99.90
38582;DHT22;24349;53.720;10.014;2023-07-20T14:33:30;21.80;99.90
38582;DHT22;24349;53.720;10.014;2023-07-20T14:35:56;21.70;99.90
38582;DHT22;24349;53.720;10.014;2023-07-20T14:38:22;22.30;99.90
38582;DHT22;24349;53.720;10.014;2023-07-20T14:40:47;22.60;99.90
38582;DHT22;24349;53.720;10.014;2023-07-20T14:43:13;22.60;99.90
38582;DHT22;24349;53.720;10.014;2023-07-20T14:45:40;22.90;99.90
38582;DHT22;24349;53.720;10.014;2023-07-20T14:48:06;23.10;99.90
38582;DHT22;24349;53.720;10.014;2023-07-20T14:50:33;23.60;99.90
38582;DHT22;24349;53.720;10.014;2023-07-20T14:52:58;24.00;99.90
38582;DHT22;24349;53.720;10.014;2023-07-20T14:55:24;23.90;99.90
38582;DHT22;24349;53.720;10.014;2023-07-20T14:57:50;24.20;99.90
38582;DHT22;24349;53.720;10.014;2023-07-20T15:00:17;24.00;99.90
38582;DHT22;24349;53.720;10.014;2023-07-20T15:02:43;23.80;99.90
38582;DHT22;24349;53.720;10.014;2023-07-20T15:05:10;23.70;99.90
38582;DHT22;24349;53.720;10.014;2023-07-20T15:07:37;23.70;99.90
38582;DHT22;24349;53.720;10.014;2023-07-20T15:10:03;23.60;99.90
38582;DHT22;24349;53.720;10.014;2023-07-20T15:12:30;23.50;99.90
38582;DHT22;24349;53.720;10.014;2023-07-20T15:15:10;23.60;99.90
38582;DHT22;24349;53.720;10.014;2023-07-20T15:17:37;23.40;99.90
38582;DHT22;24349;53.720;10.014;2023-07-20T15:20:04;23.40;99.90
38582;DHT22;24349;53.720;10.014;2023-07-20T15:22:34;23.50;99.90
38582;DHT22;24349;53.720;10.014;2023-07-20T15:25:02;23.60;99.90
38582;DHT22;24349;53.720;10.014;2023-07-20T15:27:28;23.80;99.90
38582;DHT22;24349;53.720;10.014;2023-07-20T15:29:53;24.50;99.90
38582;DHT22;24349;53.720;10.014;2023-07-20T15:32:19;24.70;99.90
38582;DHT22;24349;53.720;10.014;2023-07-20T15:34:46;24.20;99.90
38582;DHT22;24349;53.720;10.014;2023-07-20T15:37:12;23.60;99.90